Time;durP1;ratioP1;P1;durP2;ratioP2;P2;SDS_P1;SDS_P2;PMS_P1;PMS_P2;Temp;Humidity;BMP_temperature;BMP_pressure;BME280_temperature;BME280_humidity;BME280_pressure;Samples;Min_cycle;Max_cycle;Signal;HPM_P1;HPM_P2
2023/03/11 00:00:18;;;;;;;11.40;1.38;;;1.20;99.90;;;;;;5090885;28;20032;-58
2023/03/11 00:02:46;;;;;;;5.63;1.23;;;1.20;99.90;;;;;;5091791;28;20040;-58
2023/03/11 00:05:16;;;;;;;15.65;1.45;;;1.20;99.90;;;;;;5092044;28;20047;-58
2023/03/11 00:07:45;;;;;;;5.88;1.15;;;1.20;99.90;;;;;;5091713;28;20417;-58
2023/03/11 00:10:18;;;;;;;5.80;1.35;;;1.20;99.90;;;;;;5091870;28;20044;-58
2023/03/11 00:12:45;;;;;;;7.20;1.98;;;1.20;99.90;;;;;;5093834;28;20456;-58
2023/03/11 00:15:12;;;;;;;4.22;1.48;;;1.20;99.90;;;;;;5095642;28;20040;-58
2023/03/11 00:17:40;;;;;;;8.52;1.90;;;1.20;99.90;;;;;;5095962;28;20044;-58
2023/03/11 00:20:16;;;;;;;9.60;1.73;;;1.20;99.90;;;;;;5095516;28;20040;-58
2023/03/11 00:22:44;;;;;;;8.40;1.48;;;1.30;99.90;;;;;;5095370;28;20066;-58
2023/03/11 00:25:12;;;;;;;12.25;2.58;;;1.30;99.90;;;;;;5095660;28;20044;-58
2023/03/11 00:27:40;;;;;;;5.18;1.40;;;1.20;99.90;;;;;;5094122;28;20113;-58
2023/03/11 00:30:08;;;;;;;6.88;1.50;;;1.20;99.90;;;;;;5095226;28;20123;-58
2023/03/11 00:32:38;;;;;;;3.97;1.10;;;1.20;99.90;;;;;;5095255;28;20524;-58
2023/03/11 00:35:05;;;;;;;5.20;1.67;;;1.20;99.90;;;;;;5095587;28;20482;-58
2023/03/11 00:37:32;;;;;;;10.30;1.13;;;1.20;99.90;;;;;;5095436;28;20076;-58
2023/03/11 00:40:00;;;;;;;2.85;0.93;;;1.20;99.90;;;;;;5094388;28;20097;-58
2023/03/11 00:42:27;;;;;;;5.03;1.00;;;1.20;99.90;;;;;;5093817;28;20525;-58
2023/03/11 00:44:54;;;;;;;7.65;0.90;;;1.20;99.90;;;;;;5093807;28;20036;-58
2023/03/11 00:47:20;;;;;;;3.22;0.90;;;1.20;99.90;;;;;;5095240;28;20044;-58
2023/03/11 00:49:48;;;;;;;2.65;0.90;;;1.20;99.90;;;;;;5095213;28;20536;-57
2023/03/11 00:52:16;;;;;;;7.70;1.23;;;1.20;99.90;;;;;;5095122;28;20098;-58
2023/03/11 00:55:22;;;;;;;7.93;1.00;;;1.20;99.90;;;;;;5093018;28;20064;-57
2023/03/11 00:57:54;;;;;;;3.35;1.17;;;1.20;99.90;;;;;;5094899;28;20040;-57
2023/03/11 01:00:23;;;;;;;7.03;1.52;;;1.20;99.90;;;;;;5095185;28;20040;-58
2023/03/11 01:02:51;;;;;;;2.92;1.40;;;1.20;99.90;;;;;;5095000;28;20563;-58
2023/03/11 01:05:21;;;;;;;8.30;1.05;;;1.20;99.90;;;;;;5093197;28;20132;-58
2023/03/11 01:07:48;;;;;;;3.53;1.20;;;1.20;99.90;;;;;;5094785;28;20040;-58
2023/03/11 01:10:16;;;;;;;7.30;1.33;;;1.20;99.90;;;;;;5094700;28;20381;-58
2023/03/11 01:12:43;;;;;;;4.38;1.10;;;1.20;99.90;;;;;;5094795;28;20036;-57
2023/03/11 01:15:24;;;;;;;8.63;0.98;;;1.10;99.90;;;;;;5095004;28;20046;-57
2023/03/11 01:17:52;;;;;;;6.25;1.08;;;1.20;99.90;;;;;;5094530;28;20040;-58
2023/03/11 01:20:19;;;;;;;6.55;0.90;;;1.20;99.90;;;;;;5094690;28;20070;-57
2023/03/11 01:22:46;;;;;;;6.65;1.10;;;1.10;99.90;;;;;;5091993;28;20058;-58
2023/03/11 01:25:15;;;;;;;12.32;1.88;;;1.20;99.90;;;;;;5094347;28;20036;-58
2023/03/11 01:27:43;;;;;;;;;;;1.20;99.90;;;;;;5095061;28;20162;-58
2023/03/11 01:30:14;;;;;;;3.75;1.10;;;1.20;99.90;;;;;;5094522;28;19916;-58
2023/03/11 01:32:43;;;;;;;4.80;1.00;;;1.20;99.90;;;;;;5094408;28;20527;-58
2023/03/11 01:35:12;;;;;;;6.95;1.33;;;1.20;99.90;;;;;;5094552;28;20052;-58
2023/03/11 01:37:39;;;;;;;3.40;0.98;;;1.20;99.90;;;;;;5094236;28;20085;-58
2023/03/11 01:40:12;;;;;;;2.75;0.98;;;1.20;99.90;;;;;;5094375;28;20129;-58
2023/03/11 01:42:39;;;;;;;2.72;0.80;;;1.20;99.90;;;;;;5094140;28;20387;-58
2023/03/11 01:45:37;;;;;;;1.87;0.93;;;1.20;99.90;;;;;;5092082;28;20048;-59
2023/03/11 01:48:05;;;;;;;7.78;1.20;;;1.20;99.90;;;;;;5087663;28;20051;-58
2023/03/11 01:50:39;;;;;;;3.83;1.50;;;1.20;99.90;;;;;;5094441;28;20032;-58
2023/03/11 01:53:07;;;;;;;7.38;1.38;;;1.20;99.90;;;;;;5093874;28;20028;-58
2023/03/11 01:55:36;;;;;;;6.57;1.42;;;1.20;99.90;;;;;;5091669;28;20105;-58
2023/03/11 01:58:06;;;;;;;9.18;1.55;;;1.20;99.90;;;;;;5093775;28;20413;-58
2023/03/11 02:00:35;;;;;;;5.20;0.90;;;1.20;99.90;;;;;;5094106;28;20061;-58
2023/03/11 02:03:08;;;;;;;5.95;0.80;;;1.10;99.90;;;;;;5093827;28;20036;-58
2023/03/11 02:05:34;;;;;;;7.22;0.98;;;1.00;99.90;;;;;;5093855;28;20086;-57
2023/03/11 02:08:02;;;;;;;4.57;1.10;;;1.00;99.90;;;;;;5094140;28;20130;-58
2023/03/11 02:10:30;;;;;;;4.28;1.05;;;1.00;99.90;;;;;;5093489;28;20035;-57
2023/03/11 02:12:58;;;;;;;13.35;2.42;;;1.00;99.90;;;;;;5094053;28;20167;-57
2023/03/11 02:15:29;;;;;;;7.18;1.98;;;1.00;99.90;;;;;;5094052;28;20572;-58
2023/03/11 02:17:58;;;;;;;5.93;1.92;;;1.00;99.90;;;;;;5093525;28;20397;-57
2023/03/11 02:20:33;;;;;;;10.60;1.63;;;0.90;99.90;;;;;;5093308;28;20093;-57
2023/03/11 02:23:01;;;;;;;6.22;1.25;;;0.90;99.90;;;;;;5092920;28;20105;-57
2023/03/11 02:25:58;;;;;;;5.43;1.25;;;0.90;99.90;;;;;;5093008;28;20036;-57
2023/03/11 02:28:26;;;;;;;3.53;1.00;;;0.90;99.90;;;;;;5011121;28;20050;-57
2023/03/11 02:30:52;;;;;;;3.80;0.90;;;0.80;99.90;;;;;;4994742;28;20458;-58
2023/03/11 02:33:19;;;;;;;2.58;0.73;;;0.80;99.90;;;;;;5010976;28;20085;-58
2023/03/11 02:35:46;;;;;;;7.00;0.95;;;0.80;99.90;;;;;;5010580;28;20041;-57
2023/03/11 02:38:14;;;;;;;6.70;1.25;;;0.80;99.90;;;;;;5011100;28;20049;-57
2023/03/11 02:41:01;;;;;;;3.40;0.70;;;0.80;99.90;;;;;;5010962;28;20050;-58
2023/03/11 02:43:45;;;;;;;6.35;0.88;;;0.70;99.90;;;;;;5010871;28;20165;-58
2023/03/11 02:46:14;;;;;;;3.45;0.93;;;0.80;99.90;;;;;;5010722;28;20447;-57
2023/03/11 02:48:44;;;;;;;4.03;0.57;;;0.80;99.90;;;;;;5010872;28;20042;-57
2023/03/11 02:51:11;;;;;;;1.50;0.80;;;0.70;99.90;;;;;;5010722;28;20053;-57
2023/03/11 02:53:43;;;;;;;2.63;0.52;;;0.70;99.90;;;;;;5010358;28;20173;-57
2023/03/11 02:56:11;;;;;;;3.97;0.88;;;0.70;99.90;;;;;;5010653;28;20047;-58
2023/03/11 02:58:38;;;;;;;3.47;0.60;;;0.70;99.90;;;;;;5010658;28;20046;-58
2023/03/11 03:01:05;;;;;;;1.90;0.80;;;0.70;99.90;;;;;;4994059;28;20049;-58
2023/03/11 03:03:32;;;;;;;4.50;0.88;;;0.70;99.90;;;;;;5010676;28;20046;-57
2023/03/11 03:05:58;;;;;;;6.40;1.30;;;0.70;99.90;;;;;;5073798;28;20051;-57
2023/03/11 03:08:26;;;;;;;3.63;0.80;;;0.60;99.90;;;;;;5091225;28;20398;-57
2023/03/11 03:10:52;;;;;;;5.15;0.73;;;0.60;99.90;;;;;;5092200;28;20051;-57
2023/03/11 03:13:19;;;;;;;4.60;0.80;;;0.60;99.90;;;;;;5090790;28;20078;-57
2023/03/11 03:15:46;;;;;;;7.80;1.15;;;0.60;99.90;;;;;;5092400;28;20490;-57
2023/03/11 03:18:14;;;;;;;6.82;1.05;;;0.50;99.90;;;;;;5092354;28;20405;-57
2023/03/11 03:20:42;;;;;;;3.35;0.98;;;0.50;99.90;;;;;;5092518;28;20123;-57
2023/03/11 03:23:09;;;;;;;3.83;0.70;;;0.40;99.90;;;;;;5092131;28;20059;-57
2023/03/11 03:25:40;;;;;;;3.03;0.95;;;0.40;99.90;;;;;;5092293;28;20101;-57
2023/03/11 03:28:07;;;;;;;2.38;0.93;;;0.30;99.90;;;;;;5092394;28;20079;-57
2023/03/11 03:30:37;;;;;;;3.25;1.50;;;0.30;99.90;;;;;;5092388;28;20042;-57
2023/03/11 03:33:05;;;;;;;3.97;1.15;;;0.20;99.90;;;;;;5092189;28;20111;-57
2023/03/11 03:35:32;;;;;;;3.60;1.23;;;0.20;99.90;;;;;;5092308;28;20046;-57
2023/03/11 03:37:59;;;;;;;4.70;1.08;;;0.20;99.90;;;;;;5092041;28;20395;-57
2023/03/11 03:40:26;;;;;;;3.42;0.90;;;0.10;99.90;;;;;;5092346;28;20040;-57
2023/03/11 03:42:54;;;;;;;7.05;1.10;;;0.20;99.90;;;;;;5092147;28;20028;-57
2023/03/11 03:45:21;;;;;;;6.37;1.63;;;0.20;99.90;;;;;;5092183;28;20046;-57
2023/03/11 03:47:49;;;;;;;3.40;1.17;;;0.20;99.90;;;;;;5091456;28;20036;-57
2023/03/11 03:50:16;;;;;;;5.18;1.60;;;0.10;99.90;;;;;;5092170;28;20527;-57
2023/03/11 03:52:43;;;;;;;4.88;1.60;;;0.00;99.90;;;;;;5090610;28;20610;-57
2023/03/11 03:55:10;;;;;;;6.00;1.35;;;0.00;99.90;;;;;;5091790;28;20044;-58
2023/03/11 03:57:37;;;;;;;6.53;1.95;;;0.00;99.90;;;;;;5090313;28;20118;-57
2023/03/11 04:00:07;;;;;;;4.78;1.42;;;0.00;99.90;;;;;;5090117;28;20087;-57
2023/03/11 04:02:34;;;;;;;4.50;1.58;;;0.10;99.90;;;;;;5091950;28;20086;-57
2023/03/11 04:05:02;;;;;;;3.47;0.98;;;0.10;99.90;;;;;;5091625;28;20040;-57
2023/03/11 04:07:30;;;;;;;4.75;0.88;;;0.20;99.90;;;;;;5091639;28;20118;-57
2023/03/11 04:09:58;;;;;;;2.78;0.75;;;0.20;99.90;;;;;;5091763;28;20047;-57
2023/03/11 04:12:23;;;;;;;2.90;0.98;;;0.10;99.90;;;;;;5092119;28;20063;-57
2023/03/11 04:14:49;;;;;;;3.40;1.17;;;0.00;99.90;;;;;;5091830;28;20493;-57
2023/03/11 04:17:18;;;;;;;4.95;0.90;;;0.00;99.90;;;;;;5091555;28;20066;-57
2023/03/11 04:19:44;;;;;;;6.15;1.13;;;0.00;99.90;;;;;;5091656;28;20440;-57
2023/03/11 04:22:14;;;;;;;5.57;1.73;;;0.00;99.90;;;;;;5089137;28;20432;-58
2023/03/11 04:24:41;;;;;;;4.65;0.90;;;0.00;99.90;;;;;;5091639;28;20461;-57
2023/03/11 04:27:08;;;;;;;5.07;0.80;;;0.00;99.90;;;;;;5091706;28;20036;-57
2023/03/11 04:29:36;;;;;;;3.08;0.80;;;-0.10;99.90;;;;;;5091909;28;20048;-57
2023/03/11 04:32:03;;;;;;;9.00;1.30;;;-0.10;99.90;;;;;;5091547;28;20401;-57
2023/03/11 04:34:31;;;;;;;7.53;1.17;;;-0.20;99.90;;;;;;5089703;28;20590;-57
2023/03/11 04:36:59;;;;;;;3.55;1.00;;;-0.10;99.90;;;;;;5091415;28;20455;-57
2023/03/11 04:39:26;;;;;;;1.55;0.77;;;-0.20;99.90;;;;;;5091613;28;20036;-57
2023/03/11 04:41:55;;;;;;;6.95;1.35;;;-0.10;99.90;;;;;;5091331;28;20028;-57
2023/03/11 04:44:24;;;;;;;7.32;1.13;;;-0.10;99.90;;;;;;5091396;28;20097;-57
2023/03/11 04:46:53;;;;;;;10.10;0.95;;;-0.20;99.90;;;;;;5090877;28;20490;-57
2023/03/11 04:49:19;;;;;;;5.55;0.88;;;-0.20;99.90;;;;;;5091189;28;20054;-57
2023/03/11 04:51:47;;;;;;;1.73;0.70;;;-0.40;99.90;;;;;;5091477;28;20044;-57
2023/03/11 04:54:15;;;;;;;6.55;1.10;;;-0.50;99.90;;;;;;5091388;28;20044;-57
2023/03/11 04:56:42;;;;;;;4.57;0.75;;;-0.60;99.90;;;;;;5089509;28;20095;-57
2023/03/11 04:59:10;;;;;;;6.13;1.25;;;-0.60;99.90;;;;;;5093837;28;20032;-57
2023/03/11 05:01:38;;;;;;;5.82;1.00;;;-0.70;99.90;;;;;;5094944;28;20066;-57
2023/03/11 05:04:04;;;;;;;1.58;0.90;;;-0.70;99.90;;;;;;5094821;28;20384;-57
2023/03/11 05:06:32;;;;;;;3.55;0.80;;;-0.60;99.90;;;;;;5095023;28;20051;-57
2023/03/11 05:08:59;;;;;;;2.90;0.88;;;-0.60;99.90;;;;;;5094675;28;20127;-57
2023/03/11 05:11:27;;;;;;;6.82;0.88;;;-0.70;99.90;;;;;;5094694;28;20040;-57
2023/03/11 05:13:54;;;;;;;3.60;0.80;;;-0.70;99.90;;;;;;5094595;28;20040;-57
2023/03/11 05:16:22;;;;;;;3.55;0.80;;;-0.70;99.90;;;;;;5092812;28;20052;-57
2023/03/11 05:18:50;;;;;;;5.65;0.95;;;-0.70;99.90;;;;;;5094751;28;20040;-57
2023/03/11 05:21:16;;;;;;;2.80;0.80;;;-0.70;99.90;;;;;;5094767;28;20481;-57
2023/03/11 05:23:44;;;;;;;8.75;1.13;;;-0.80;99.90;;;;;;5094568;28;20494;-57
2023/03/11 05:26:11;;;;;;;2.78;1.13;;;-0.80;99.90;;;;;;5094574;28;20040;-57
2023/03/11 05:28:38;;;;;;;4.40;0.93;;;-0.80;99.90;;;;;;5094551;28;20055;-57
2023/03/11 05:31:11;;;;;;;3.47;0.90;;;-0.80;99.90;;;;;;5094637;28;20106;-57
2023/03/11 05:33:39;;;;;;;1.25;0.80;;;-0.80;99.90;;;;;;5094241;28;20171;-57
2023/03/11 05:36:07;;;;;;;4.67;1.33;;;-0.90;99.90;;;;;;5092931;28;20044;-57
2023/03/11 05:38:35;;;;;;;5.05;0.80;;;-1.00;99.90;;;;;;5092482;28;20508;-57
2023/03/11 05:41:03;;;;;;;3.08;1.05;;;-1.00;99.90;;;;;;5094216;28;20491;-57
2023/03/11 05:43:30;;;;;;;2.83;1.00;;;-1.00;99.90;;;;;;5094550;28;20044;-57
2023/03/11 05:45:58;;;;;;;0.95;0.88;;;-1.00;99.90;;;;;;5093787;28;20619;-57
2023/03/11 05:48:25;;;;;;;1.65;1.10;;;-1.00;99.90;;;;;;5094299;28;20036;-57
2023/03/11 05:50:52;;;;;;;8.43;1.15;;;-1.10;99.90;;;;;;5094104;28;20033;-57
2023/03/11 05:53:19;;;;;;;9.15;1.30;;;-1.00;99.90;;;;;;5093926;28;20032;-57
2023/03/11 05:55:55;;;;;;;5.03;1.20;;;-1.10;99.90;;;;;;5093887;28;20507;-57
2023/03/11 05:58:21;;;;;;;5.35;1.70;;;-1.10;99.90;;;;;;5093823;28;20044;-57
2023/03/11 06:00:48;;;;;;;1.65;1.00;;;-1.10;99.90;;;;;;5094166;28;20524;-57
2023/03/11 06:03:15;;;;;;;3.63;1.00;;;-1.10;99.90;;;;;;5093950;28;20122;-57
2023/03/11 06:05:49;;;;;;;8.05;1.08;;;-1.00;99.90;;;;;;5093960;28;20055;-57
2023/03/11 06:08:17;;;;;;;9.77;1.27;;;-1.10;99.90;;;;;;5093552;28;20051;-57
2023/03/11 06:10:44;;;;;;;1.40;0.80;;;-1.20;99.90;;;;;;5092622;28;20040;-57
2023/03/11 06:13:11;;;;;;;4.95;1.00;;;-1.10;99.90;;;;;;5093561;28;20089;-57
2023/03/11 06:15:40;;;;;;;2.90;1.08;;;-1.10;99.90;;;;;;5093489;28;20486;-57
2023/03/11 06:18:06;;;;;;;6.35;1.58;;;-1.20;99.90;;;;;;5093393;28;20043;-57
2023/03/11 06:20:34;;;;;;;3.35;0.70;;;-1.20;99.90;;;;;;5093293;28;20032;-57
2023/03/11 06:23:01;;;;;;;6.85;1.08;;;-1.00;99.90;;;;;;5093151;28;20052;-57
2023/03/11 06:25:28;;;;;;;3.22;1.23;;;-1.10;99.90;;;;;;5093249;28;20040;-55
2023/03/11 06:27:54;;;;;;;6.63;1.20;;;-1.10;99.90;;;;;;5092287;28;20055;-55
2023/03/11 06:30:23;;;;;;;5.07;1.48;;;-1.10;99.90;;;;;;5093469;28;20036;-55
2023/03/11 06:32:49;;;;;;;10.27;1.77;;;-1.10;99.90;;;;;;5093259;28;20036;-55
2023/03/11 06:35:16;;;;;;;2.80;1.25;;;-1.10;99.90;;;;;;5093024;28;20051;-55
2023/03/11 06:37:45;;;;;;;6.30;1.17;;;-0.90;99.90;;;;;;5092981;28;20131;-56
2023/03/11 06:40:13;;;;;;;7.47;0.88;;;-0.80;99.90;;;;;;5090810;28;20131;-56
2023/03/11 06:42:39;;;;;;;8.07;1.23;;;-0.80;99.90;;;;;;5095298;28;20047;-55
2023/03/11 06:45:06;;;;;;;4.95;1.30;;;-0.70;99.90;;;;;;5091206;28;20411;-56
2023/03/11 06:47:32;;;;;;;4.65;0.98;;;-0.60;99.90;;;;;;5092897;28;20474;-56
2023/03/11 06:49:58;;;;;;;6.85;1.42;;;-0.60;99.90;;;;;;5092855;28;20461;-55
2023/03/11 06:52:25;;;;;;;3.22;1.00;;;-0.60;99.90;;;;;;5093031;28;20036;-55
2023/03/11 06:54:52;;;;;;;8.32;1.40;;;-0.50;99.90;;;;;;5092665;28;20040;-55
2023/03/11 06:57:19;;;;;;;5.05;1.15;;;-0.50;99.90;;;;;;5112376;28;20043;-55
2023/03/11 06:59:46;;;;;;;6.18;1.13;;;-0.50;99.90;;;;;;5113135;28;20032;-55
2023/03/11 07:02:13;;;;;;;7.22;1.50;;;-0.50;99.90;;;;;;5112800;28;20038;-55
2023/03/11 07:04:39;;;;;;;8.18;1.30;;;-0.50;99.90;;;;;;5113053;28;20039;-56
2023/03/11 07:07:05;;;;;;;6.35;1.10;;;-0.40;99.90;;;;;;5112934;28;20065;-55
2023/03/11 07:09:31;;;;;;;2.78;1.30;;;-0.30;99.90;;;;;;5113095;28;20043;-55
2023/03/11 07:11:58;;;;;;;1.58;0.95;;;-0.30;99.90;;;;;;5112803;28;20039;-55
2023/03/11 07:14:24;;;;;;;4.15;1.30;;;-0.30;99.90;;;;;;5112020;28;20039;-56
2023/03/11 07:16:50;;;;;;;6.43;1.50;;;-0.10;99.90;;;;;;5112416;28;20055;-56
2023/03/11 07:19:16;;;;;;;10.05;2.00;;;-0.10;99.90;;;;;;5111114;28;20035;-55
2023/03/11 07:21:43;;;;;;;6.75;1.65;;;0.10;99.90;;;;;;5112685;28;20069;-56
2023/03/11 07:24:12;;;;;;;4.00;1.30;;;0.20;99.90;;;;;;5112372;28;20076;-55
2023/03/11 07:26:38;;;;;;;8.45;1.67;;;0.40;99.90;;;;;;5111030;28;20107;-56
2023/03/11 07:29:04;;;;;;;12.75;1.40;;;0.60;99.90;;;;;;5112351;28;20043;-56
2023/03/11 07:31:33;;;;;;;5.47;1.63;;;0.90;99.90;;;;;;5112408;28;20396;-56
2023/03/11 07:34:02;;;;;;;6.28;1.67;;;1.20;99.90;;;;;;5110610;28;20047;-56
2023/03/11 07:36:28;;;;;;;4.55;1.30;;;1.50;99.90;;;;;;5112502;27;20039;-56
2023/03/11 07:39:02;;;;;;;4.82;1.50;;;1.90;99.90;;;;;;5112397;28;20035;-56
2023/03/11 07:41:31;;;;;;;9.43;1.83;;;2.30;99.90;;;;;;5112422;28;20397;-56
2023/03/11 07:43:58;;;;;;;;;;;2.80;99.90;;;;;;5112688;28;20092;-56
2023/03/11 07:46:27;;;;;;;7.22;1.10;;;3.20;99.90;;;;;;5110747;28;19916;-56
2023/03/11 07:48:53;;;;;;;5.43;1.17;;;3.50;99.90;;;;;;5112497;28;20075;-56
2023/03/11 07:51:28;;;;;;;6.35;1.20;;;3.80;99.90;;;;;;5112243;28;20067;-56
2023/03/11 07:53:57;;;;;;;6.30;1.20;;;4.20;99.90;;;;;;5112118;28;20043;-56
2023/03/11 07:56:26;;;;;;;3.87;1.07;;;4.60;99.90;;;;;;5111664;28;20039;-56
2023/03/11 07:58:53;;;;;;;3.63;1.08;;;4.90;99.90;;;;;;5112334;28;20032;-57
2023/03/11 08:01:22;;;;;;;3.28;1.15;;;5.30;99.90;;;;;;5112265;28;20078;-57
2023/03/11 08:03:55;;;;;;;4.75;1.70;;;5.50;99.90;;;;;;5112288;28;20032;-57
2023/03/11 08:06:29;;;;;;;4.65;1.20;;;5.90;99.90;;;;;;5112136;28;20071;-56
2023/03/11 08:09:01;;;;;;;6.05;1.35;;;6.00;99.90;;;;;;5111935;28;20114;-56
2023/03/11 08:11:27;;;;;;;5.68;1.42;;;6.30;99.90;;;;;;5112112;28;20038;-56
2023/03/11 08:13:54;;;;;;;2.20;0.98;;;6.50;99.90;;;;;;5111965;28;20044;-56
2023/03/11 08:16:21;;;;;;;2.72;1.10;;;6.70;99.90;;;;;;5110170;28;20554;-56
2023/03/11 08:18:50;;;;;;;3.65;1.17;;;6.80;99.90;;;;;;5111983;28;20028;-57
2023/03/11 08:21:21;;;;;;;5.20;1.38;;;7.00;99.90;;;;;;5111786;28;20042;-57
2023/03/11 08:23:48;;;;;;;3.83;1.10;;;7.20;99.90;;;;;;5111726;28;20050;-57
2023/03/11 08:26:20;;;;;;;3.55;1.35;;;7.30;99.90;;;;;;5111825;28;20067;-57
2023/03/11 08:28:48;;;;;;;4.10;1.58;;;7.40;99.90;;;;;;5110239;28;20048;-57
2023/03/11 08:31:17;;;;;;;5.75;2.28;;;7.60;99.90;;;;;;5111822;28;20035;-57
2023/03/11 08:33:46;;;;;;;3.38;1.73;;;7.90;99.90;;;;;;5113911;28;20481;-57
2023/03/11 08:36:14;;;;;;;8.90;2.15;;;7.90;99.90;;;;;;5115893;27;20044;-57
2023/03/11 08:38:42;;;;;;;5.38;1.60;;;8.10;99.90;;;;;;5115875;28;20046;-57
2023/03/11 08:41:09;;;;;;;4.68;1.75;;;8.30;99.90;;;;;;5114824;28;20036;-57
2023/03/11 08:43:37;;;;;;;5.80;1.30;;;8.50;99.90;;;;;;5115669;28;20035;-57
2023/03/11 08:46:08;;;;;;;;;;;8.50;99.90;;;;;;5115738;28;20162;-57
2023/03/11 08:48:37;;;;;;;4.25;1.50;;;8.80;99.90;;;;;;5115408;28;20036;-57
2023/03/11 08:51:10;;;;;;;6.95;1.60;;;9.00;99.90;;;;;;5102443;28;20054;-57
2023/03/11 08:53:37;;;;;;;4.47;1.23;;;9.20;99.90;;;;;;5081487;28;20502;-58
2023/03/11 08:56:04;;;;;;;4.55;1.13;;;9.60;99.90;;;;;;5074977;28;20040;-57
2023/03/11 08:58:31;;;;;;;7.03;1.45;;;9.70;99.90;;;;;;5074884;28;20041;-57
2023/03/11 09:00:58;;;;;;;4.57;1.88;;;9.90;99.90;;;;;;5075062;28;20041;-58
2023/03/11 09:03:25;;;;;;;5.30;1.95;;;9.80;99.90;;;;;;5074827;28;20045;-58
2023/03/11 09:05:58;;;;;;;4.45;1.40;;;10.10;99.90;;;;;;5075139;28;20036;-57
2023/03/11 09:08:25;;;;;;;6.03;1.23;;;10.00;99.90;;;;;;5074947;28;20133;-57
2023/03/11 09:10:52;;;;;;;4.50;2.20;;;9.90;99.90;;;;;;5087157;28;20062;-57
2023/03/11 09:13:19;;;;;;;6.30;1.58;;;10.10;99.90;;;;;;5094009;28;20040;-57
2023/03/11 09:15:58;;;;;;;6.07;1.67;;;10.20;99.90;;;;;;5087266;28;20036;-57
2023/03/11 09:18:26;;;;;;;3.40;1.50;;;10.40;99.90;;;;;;5074289;28;20047;-57
2023/03/11 09:20:57;;;;;;;5.68;1.42;;;10.20;99.90;;;;;;5074788;28;20047;-57
2023/03/11 09:23:24;;;;;;;7.47;1.50;;;10.40;99.90;;;;;;5074371;28;20094;-57
2023/03/11 09:25:51;;;;;;;4.03;1.30;;;10.30;99.90;;;;;;5074436;28;20083;-57
2023/03/11 09:28:18;;;;;;;9.65;1.85;;;10.30;99.90;;;;;;5074422;28;20036;-57
2023/03/11 09:30:45;;;;;;;6.22;1.50;;;10.30;99.90;;;;;;5074472;28;20039;-57
2023/03/11 09:33:11;;;;;;;10.05;1.50;;;10.20;99.90;;;;;;5074435;28;20048;-57
2023/03/11 09:35:38;;;;;;;10.65;1.40;;;10.20;99.90;;;;;;5074471;28;20044;-57
2023/03/11 09:38:05;;;;;;;7.05;1.30;;;10.10;99.90;;;;;;5073950;28;20045;-57
2023/03/11 09:41:03;;;;;;;8.88;1.35;;;10.30;99.90;;;;;;5074118;28;20457;-57
2023/03/11 09:43:44;;;;;;;7.07;1.80;;;10.20;99.90;;;;;;5031961;28;20052;-57
2023/03/11 09:46:32;;;;;;;5.47;1.30;;;10.10;99.90;;;;;;5015489;28;20053;-57
2023/03/11 09:49:32;;;;;;;4.80;1.60;;;10.10;99.90;;;;;;5039402;28;20033;-57
2023/03/11 09:52:12;;;;;;;6.93;1.60;;;9.70;99.90;;;;;;5012115;28;20514;-57
2023/03/11 09:54:47;;;;;;;4.47;1.50;;;9.60;99.90;;;;;;5012268;28;20120;-56
2023/03/11 09:57:27;;;;;;;6.07;1.58;;;9.50;99.90;;;;;;4995340;28;20054;-56
2023/03/11 09:59:54;;;;;;;4.35;1.50;;;9.30;99.90;;;;;;5011895;28;20060;-57
2023/03/11 10:02:26;;;;;;;6.38;1.80;;;9.30;99.90;;;;;;5011944;28;20050;-56
2023/03/11 10:04:56;;;;;;;8.98;1.25;;;9.00;99.90;;;;;;5012019;28;20112;-56
2023/03/11 10:07:39;;;;;;;6.78;1.70;;;9.20;99.90;;;;;;5011806;28;20492;-56
2023/03/11 10:10:10;;;;;;;9.55;1.85;;;9.20;99.90;;;;;;5011052;28;20046;-56
2023/03/11 10:13:00;;;;;;;4.93;1.50;;;9.00;99.90;;;;;;5011640;28;20046;-56
2023/03/11 10:15:48;;;;;;;5.35;1.80;;;8.90;99.90;;;;;;5011601;28;20050;-56
2023/03/11 10:18:39;;;;;;;7.60;1.60;;;9.10;99.90;;;;;;4995979;28;20404;-56
2023/03/11 10:21:13;;;;;;;5.30;1.60;;;8.90;99.90;;;;;;4953455;29;20437;-56
2023/03/11 10:24:02;;;;;;;6.57;1.45;;;9.00;99.90;;;;;;4953247;29;20196;-56
2023/03/11 10:26:35;;;;;;;5.75;2.13;;;9.10;99.90;;;;;;4953202;29;20505;-56
2023/03/11 10:29:25;;;;;;;6.70;1.55;;;9.00;99.90;;;;;;4990572;28;20550;-56
2023/03/11 10:32:17;;;;;;;6.72;1.33;;;9.00;99.90;;;;;;5031161;28;20053;-56
2023/03/11 10:34:57;;;;;;;6.30;1.67;;;8.80;99.90;;;;;;5014382;28;20420;-56
2023/03/11 10:37:31;;;;;;;4.53;1.40;;;8.80;99.90;;;;;;5011143;28;20041;-56
2023/03/11 10:40:22;;;;;;;5.22;1.30;;;8.80;99.90;;;;;;5011235;28;20478;-56
2023/03/11 10:42:50;;;;;;;;;;;8.90;99.90;;;;;;5011550;28;20108;-56
2023/03/11 10:45:19;;;;;;;10.27;1.40;;;8.90;99.90;;;;;;4996885;28;20394;-56
2023/03/11 10:47:48;;;;;;;10.95;1.98;;;8.90;99.90;;;;;;5030892;28;20041;-56
2023/03/11 10:50:19;;;;;;;6.13;1.33;;;8.90;99.90;;;;;;5031014;28;20037;-57
2023/03/11 10:53:08;;;;;;;5.47;1.30;;;8.80;99.90;;;;;;5030282;28;20095;-56
2023/03/11 10:55:44;;;;;;;6.82;1.67;;;8.70;99.90;;;;;;5030204;28;20037;-56
2023/03/11 10:58:13;;;;;;;5.07;0.90;;;8.80;99.90;;;;;;5059069;28;20054;-56
2023/03/11 11:00:40;;;;;;;4.00;1.50;;;8.70;99.90;;;;;;5073721;28;20535;-56
2023/03/11 11:03:17;;;;;;;11.25;1.35;;;8.60;99.90;;;;;;5073388;28;20043;-56
2023/03/11 11:05:43;;;;;;;5.90;1.60;;;8.60;99.90;;;;;;5111224;28;20027;-56
2023/03/11 11:08:15;;;;;;;7.97;1.83;;;8.60;99.90;;;;;;5113110;28;20052;-57
2023/03/11 11:10:53;;;;;;;6.03;2.00;;;8.60;99.90;;;;;;5112998;28;20078;-57
2023/03/11 11:13:23;;;;;;;8.05;1.40;;;8.50;99.90;;;;;;5108634;28;20044;-56
2023/03/11 11:15:55;;;;;;;6.72;1.95;;;8.60;99.90;;;;;;5092381;28;20152;-56
2023/03/11 11:18:45;;;;;;;5.85;1.58;;;8.50;99.90;;;;;;5090677;28;20058;-56
2023/03/11 11:21:34;;;;;;;6.10;1.48;;;8.60;99.90;;;;;;5092450;28;20385;-56
2023/03/11 11:24:09;;;;;;;7.75;1.20;;;8.70;99.90;;;;;;5091812;28;20063;-56
2023/03/11 11:26:36;;;;;;;5.75;1.38;;;8.80;99.90;;;;;;5088211;28;20041;-56
2023/03/11 11:29:09;;;;;;;5.03;1.60;;;8.80;99.90;;;;;;5104854;28;20123;-56
2023/03/11 11:31:37;;;;;;;9.38;1.67;;;8.90;99.90;;;;;;5082059;28;20520;-57
2023/03/11 11:34:05;;;;;;;4.87;1.10;;;8.80;99.90;;;;;;5074314;28;20055;-57
2023/03/11 11:36:34;;;;;;;4.10;1.50;;;9.00;99.90;;;;;;5073987;28;20496;-57
2023/03/11 11:39:10;;;;;;;5.20;1.30;;;9.20;99.90;;;;;;5071914;28;20028;-56
2023/03/11 11:41:39;;;;;;;5.40;1.60;;;8.90;99.90;;;;;;5079796;28;20112;-56
2023/03/11 11:44:14;;;;;;;3.30;1.40;;;9.20;99.90;;;;;;5071525;28;20047;-56
2023/03/11 11:46:54;;;;;;;4.18;1.10;;;9.20;99.90;;;;;;5071870;28;20044;-56
2023/03/11 11:49:30;;;;;;;4.88;1.20;;;9.20;99.90;;;;;;5071739;28;20489;-56
2023/03/11 11:51:59;;;;;;;5.88;1.17;;;9.40;99.90;;;;;;5071665;28;20478;-56
2023/03/11 11:54:32;;;;;;;;;;;9.60;99.90;;;;;;5072302;28;20036;-56
2023/03/11 11:57:09;;;;;;;7.40;1.17;;;9.40;99.90;;;;;;5080713;28;19924;-56
2023/03/11 11:59:35;;;;;;;3.65;1.00;;;9.50;99.90;;;;;;5077410;28;20093;-57
2023/03/11 12:02:24;;;;;;;8.48;1.33;;;9.80;99.90;;;;;;5091626;28;20044;-56
2023/03/11 12:04:57;;;;;;;6.05;1.60;;;9.80;99.90;;;;;;5082177;28;20111;-57
2023/03/11 12:07:40;;;;;;;3.40;1.15;;;9.80;99.90;;;;;;5071833;28;20036;-56
2023/03/11 12:10:19;;;;;;;6.22;1.25;;;9.90;99.90;;;;;;5078310;28;20033;-57
2023/03/11 12:12:53;;;;;;;6.70;1.17;;;10.00;99.90;;;;;;5076136;28;20058;-56
2023/03/11 12:15:34;;;;;;;4.47;1.00;;;9.80;99.90;;;;;;5076491;28;20490;-56
2023/03/11 12:18:07;;;;;;;6.85;1.15;;;10.00;99.90;;;;;;5075672;28;20052;-57
2023/03/11 12:20:54;;;;;;;4.00;1.00;;;9.80;99.90;;;;;;5075693;28;20497;-57
2023/03/11 12:23:34;;;;;;;2.60;1.00;;;9.90;99.90;;;;;;5075546;28;20055;-56
2023/03/11 12:26:10;;;;;;;;;;;10.00;99.90;;;;;;5076028;28;20032;-56
2023/03/11 12:28:37;;;;;;;5.82;1.40;;;10.00;99.90;;;;;;5088771;28;19916;-56
2023/03/11 12:31:09;;;;;;;3.72;1.13;;;10.00;99.90;;;;;;5095890;28;20135;-56
2023/03/11 12:33:50;;;;;;;4.75;0.88;;;10.10;99.90;;;;;;5095685;28;20036;-56
2023/03/11 12:36:24;;;;;;;1.98;0.60;;;10.20;99.90;;;;;;5094034;28;20043;-57
2023/03/11 12:38:57;;;;;;;5.45;0.57;;;9.80;99.90;;;;;;5074857;28;20045;-56
2023/03/11 12:41:40;;;;;;;4.72;0.82;;;9.70;99.90;;;;;;5075571;28;20036;-57
2023/03/11 12:44:17;;;;;;;2.28;0.55;;;9.50;99.90;;;;;;5075278;28;20040;-57
2023/03/11 12:47:01;;;;;;;4.90;0.68;;;9.30;99.90;;;;;;5081397;28;20040;-56
2023/03/11 12:49:33;;;;;;;4.28;0.77;;;9.40;99.90;;;;;;5095509;28;20510;-56
2023/03/11 12:52:10;;;;;;;2.40;1.10;;;9.30;99.90;;;;;;5095399;28;20096;-56
2023/03/11 12:54:40;;;;;;;5.28;0.80;;;9.20;99.90;;;;;;5083758;28;20055;-57
2023/03/11 12:57:17;;;;;;;4.63;0.60;;;9.30;99.90;;;;;;5064460;28;20531;-57
2023/03/11 13:00:21;;;;;;;3.35;0.70;;;9.10;99.90;;;;;;5075265;28;20048;-56
2023/03/11 13:03:00;;;;;;;1.85;0.57;;;9.00;99.90;;;;;;5073501;28;20063;-57
2023/03/11 13:05:40;;;;;;;2.63;1.10;;;9.20;99.90;;;;;;5074797;28;20482;-57
2023/03/11 13:08:14;;;;;;;3.92;1.60;;;9.20;99.90;;;;;;5074595;28;20090;-56
2023/03/11 13:10:48;;;;;;;7.50;0.88;;;9.40;99.90;;;;;;5077598;28;20115;-56
2023/03/11 13:13:42;;;;;;;3.20;0.63;;;9.60;99.90;;;;;;5089308;28;20047;-56